sensor_id;sensor_type;location;lat;lon;timestamp;temperature;humidity
19258;DHT22;9763;48.780;9.212;2023-03-01T00:02:11;2.90;55.40
19258;DHT22;9763;48.780;9.212;2023-03-01T00:05:36;2.90;55.30
19258;DHT22;9763;48.780;9.212;2023-03-01T00:09:06;2.90;54.80
19258;DHT22;9763;48.780;9.212;2023-03-01T00:12:31;2.90;54.80
19258;DHT22;9763;48.780;9.212;2023-03-01T00:15:55;2.90;55.30
19258;DHT22;9763;48.780;9.212;2023-03-01T00:19:19;2.90;55.30
19258;DHT22;9763;48.780;9.212;2023-03-01T00:22:45;2.80;54.90
19258;DHT22;9763;48.780;9.212;2023-03-01T00:26:14;2.80;54.90
19258;DHT22;9763;48.780;9.212;2023-03-01T00:29:39;2.80;55.40
19258;DHT22;9763;48.780;9.212;2023-03-01T00:33:02;2.80;55.30
19258;DHT22;9763;48.780;9.212;2023-03-01T00:36:29;4.90;57.00
19258;DHT22;9763;48.780;9.212;2023-03-01T00:39:58;2.70;55.50
19258;DHT22;9763;48.780;9.212;2023-03-01T00:43:22;2.70;55.40
19258;DHT22;9763;48.780;9.212;2023-03-01T00:46:45;2.70;55.40
19258;DHT22;9763;48.780;9.212;2023-03-01T00:50:10;2.70;55.40
19258;DHT22;9763;48.780;9.212;2023-03-01T00:53:35;2.60;55.50
19258;DHT22;9763;48.780;9.212;2023-03-01T00:57:01;2.60;55.50
19258;DHT22;9763;48.780;9.212;2023-03-01T01:00:24;2.60;55.40
19258;DHT22;9763;48.780;9.212;2023-03-01T01:03:53;2.60;55.50
19258;DHT22;9763;48.780;9.212;2023-03-01T01:07:18;2.50;55.50
19258;DHT22;9763;48.780;9.212;2023-03-01T01:10:44;2.50;55.40
19258;DHT22;9763;48.780;9.212;2023-03-01T01:14:09;2.50;55.10
19258;DHT22;9763;48.780;9.212;2023-03-01T01:17:33;4.70;57.20
19258;DHT22;9763;48.780;9.212;2023-03-01T01:20:57;2.40;55.20
19258;DHT22;9763;48.780;9.212;2023-03-01T01:24:21;2.50;55.30
19258;DHT22;9763;48.780;9.212;2023-03-01T01:27:45;2.40;55.70
19258;DHT22;9763;48.780;9.212;2023-03-01T01:31:10;2.40;55.30
19258;DHT22;9763;48.780;9.212;2023-03-01T01:34:34;2.40;55.70
19258;DHT22;9763;48.780;9.212;2023-03-01T01:37:58;2.40;55.70
19258;DHT22;9763;48.780;9.212;2023-03-01T01:41:23;2.40;55.80
19258;DHT22;9763;48.780;9.212;2023-03-01T01:44:48;2.50;56.00
19258;DHT22;9763;48.780;9.212;2023-03-01T01:48:39;2.40;55.90
19258;DHT22;9763;48.780;9.212;2023-03-01T01:52:10;2.40;56.00
19258;DHT22;9763;48.780;9.212;2023-03-01T01:55:39;2.40;56.20
19258;DHT22;9763;48.780;9.212;2023-03-01T01:59:06;2.40;56.40
19258;DHT22;9763;48.780;9.212;2023-03-01T02:02:30;2.40;56.40
19258;DHT22;9763;48.780;9.212;2023-03-01T02:05:58;2.40;56.60
19258;DHT22;9763;48.780;9.212;2023-03-01T02:09:27;2.80;57.00
19258;DHT22;9763;48.780;9.212;2023-03-01T02:12:52;2.50;56.90
19258;DHT22;9763;48.780;9.212;2023-03-01T02:16:18;2.60;57.00
19258;DHT22;9763;48.780;9.212;2023-03-01T02:19:51;2.70;57.10
19258;DHT22;9763;48.780;9.212;2023-03-01T02:23:26;2.80;56.60
19258;DHT22;9763;48.780;9.212;2023-03-01T02:26:54;2.90;56.60
19258;DHT22;9763;48.780;9.212;2023-03-01T02:30:22;2.80;56.60
19258;DHT22;9763;48.780;9.212;2023-03-01T02:33:48;2.90;57.20
19258;DHT22;9763;48.780;9.212;2023-03-01T02:37:13;2.90;56.50
19258;DHT22;9763;48.780;9.212;2023-03-01T02:44:10;3.00;56.70
19258;DHT22;9763;48.780;9.212;2023-03-01T02:47:37;3.00;56.70
19258;DHT22;9763;48.780;9.212;2023-03-01T02:51:07;3.10;56.70
19258;DHT22;9763;48.780;9.212;2023-03-01T02:54:40;3.20;56.80
19258;DHT22;9763;48.780;9.212;2023-03-01T03:05:05;3.20;56.60
19258;DHT22;9763;48.780;9.212;2023-03-01T03:08:31;3.30;56.70
19258;DHT22;9763;48.780;9.212;2023-03-01T03:11:55;3.30;56.70
19258;DHT22;9763;48.780;9.212;2023-03-01T03:15:20;3.30;56.70
19258;DHT22;9763;48.780;9.212;2023-03-01T03:18:44;3.30;56.60
19258;DHT22;9763;48.780;9.212;2023-03-01T03:22:09;3.30;57.10
19258;DHT22;9763;48.780;9.212;2023-03-01T03:28:59;3.30;56.50
19258;DHT22;9763;48.780;9.212;2023-03-01T03:32:23;3.40;56.80
19258;DHT22;9763;48.780;9.212;2023-03-01T03:35:48;3.40;56.90
19258;DHT22;9763;48.780;9.212;2023-03-01T03:39:14;3.40;56.90
19258;DHT22;9763;48.780;9.212;2023-03-01T03:42:41;3.40;57.30
19258;DHT22;9763;48.780;9.212;2023-03-01T03:46:05;3.40;57.30
19258;DHT22;9763;48.780;9.212;2023-03-01T03:49:29;3.40;57.40
19258;DHT22;9763;48.780;9.212;2023-03-01T03:52:53;3.50;57.40
19258;DHT22;9763;48.780;9.212;2023-03-01T03:56:18;3.50;57.40
19258;DHT22;9763;48.780;9.212;2023-03-01T03:59:42;3.60;57.50
19258;DHT22;9763;48.780;9.212;2023-03-01T04:03:06;3.60;57.40
19258;DHT22;9763;48.780;9.212;2023-03-01T04:06:30;3.60;58.10
19258;DHT22;9763;48.780;9.212;2023-03-01T04:09:54;3.70;57.60
19258;DHT22;9763;48.780;9.212;2023-03-01T04:13:21;3.70;57.50
19258;DHT22;9763;48.780;9.212;2023-03-01T04:16:47;3.70;57.60
19258;DHT22;9763;48.780;9.212;2023-03-01T04:20:12;3.80;57.00
19258;DHT22;9763;48.780;9.212;2023-03-01T04:23:39;3.80;56.80
19258;DHT22;9763;48.780;9.212;2023-03-01T04:27:04;3.80;56.90
19258;DHT22;9763;48.780;9.212;2023-03-01T04:30:29;3.80;56.90
19258;DHT22;9763;48.780;9.212;2023-03-01T04:33:57;3.80;56.80
19258;DHT22;9763;48.780;9.212;2023-03-01T04:37:22;3.80;57.30
19258;DHT22;9763;48.780;9.212;2023-03-01T04:40:48;4.00;58.10
19258;DHT22;9763;48.780;9.212;2023-03-01T04:44:12;3.90;57.00
19258;DHT22;9763;48.780;9.212;2023-03-01T04:47:37;3.90;57.00
19258;DHT22;9763;48.780;9.212;2023-03-01T04:51:01;3.90;57.40
19258;DHT22;9763;48.780;9.212;2023-03-01T04:54:26;4.00;57.50
19258;DHT22;9763;48.780;9.212;2023-03-01T04:57:49;4.00;57.50
19258;DHT22;9763;48.780;9.212;2023-03-01T05:01:15;4.00;57.40
19258;DHT22;9763;48.780;9.212;2023-03-01T05:04:41;4.00;57.50
19258;DHT22;9763;48.780;9.212;2023-03-01T05:08:07;4.00;57.40
19258;DHT22;9763;48.780;9.212;2023-03-01T05:11:31;4.00;56.90
19258;DHT22;9763;48.780;9.212;2023-03-01T05:14:58;4.00;57.50
19258;DHT22;9763;48.780;9.212;2023-03-01T05:18:22;4.30;57.70
19258;DHT22;9763;48.780;9.212;2023-03-01T05:21:49;4.00;57.50
19258;DHT22;9763;48.780;9.212;2023-03-01T05:25:26;4.00;57.50
19258;DHT22;9763;48.780;9.212;2023-03-01T05:28:55;4.10;57.60
19258;DHT22;9763;48.780;9.212;2023-03-01T05:32:21;4.10;57.60
19258;DHT22;9763;48.780;9.212;2023-03-01T05:35:45;4.10;57.50
19258;DHT22;9763;48.780;9.212;2023-03-01T05:39:12;4.20;57.50
19258;DHT22;9763;48.780;9.212;2023-03-01T05:42:35;4.20;58.10
19258;DHT22;9763;48.780;9.212;2023-03-01T05:45:59;4.20;57.50
19258;DHT22;9763;48.780;9.212;2023-03-01T05:49:23;4.20;57.50
19258;DHT22;9763;48.780;9.212;2023-03-01T05:52:49;4.20;56.80
19258;DHT22;9763;48.780;9.212;2023-03-01T05:56:15;4.20;57.40
19258;DHT22;9763;48.780;9.212;2023-03-01T05:59:39;4.20;57.30
19258;DHT22;9763;48.780;9.212;2023-03-01T06:03:03;4.20;57.40
19258;DHT22;9763;48.780;9.212;2023-03-01T06:06:27;4.20;57.40
19258;DHT22;9763;48.780;9.212;2023-03-01T06:09:52;4.50;57.80
19258;DHT22;9763;48.780;9.212;2023-03-01T06:13:17;4.20;57.50
19258;DHT22;9763;48.780;9.212;2023-03-01T06:16:41;4.20;57.50
19258;DHT22;9763;48.780;9.212;2023-03-01T06:20:06;4.20;57.40
19258;DHT22;9763;48.780;9.212;2023-03-01T06:23:32;4.20;57.50
19258;DHT22;9763;48.780;9.212;2023-03-01T06:26:56;4.20;57.50
19258;DHT22;9763;48.780;9.212;2023-03-01T06:30:22;4.20;57.00
19258;DHT22;9763;48.780;9.212;2023-03-01T06:33:47;4.20;57.60
19258;DHT22;9763;48.780;9.212;2023-03-01T06:37:10;4.30;57.60
19258;DHT22;9763;48.780;9.212;2023-03-01T06:40:34;4.30;57.50
19258;DHT22;9763;48.780;9.212;2023-03-01T06:43:58;4.20;57.40
19258;DHT22;9763;48.780;9.212;2023-03-01T06:47:23;4.20;57.60
19258;DHT22;9763;48.780;9.212;2023-03-01T06:50:47;4.20;57.60
19258;DHT22;9763;48.780;9.212;2023-03-01T06:54:11;4.20;57.30
19258;DHT22;9763;48.780;9.212;2023-03-01T06:57:34;4.20;57.90
19258;DHT22;9763;48.780;9.212;2023-03-01T07:00:58;4.30;58.00
19258;DHT22;9763;48.780;9.212;2023-03-01T07:04:23;4.30;57.90
19258;DHT22;9763;48.780;9.212;2023-03-01T07:07:47;4.50;57.90
19258;DHT22;9763;48.780;9.212;2023-03-01T07:11:11;4.40;57.80
19258;DHT22;9763;48.780;9.212;2023-03-01T07:14:34;4.40;57.80
19258;DHT22;9763;48.780;9.212;2023-03-01T07:17:58;4.40;57.70
19258;DHT22;9763;48.780;9.212;2023-03-01T07:21:23;4.40;57.60
19258;DHT22;9763;48.780;9.212;2023-03-01T07:24:46;4.40;57.50
19258;DHT22;9763;48.780;9.212;2023-03-01T07:28:10;4.40;57.50
19258;DHT22;9763;48.780;9.212;2023-03-01T07:31:34;4.50;57.60
19258;DHT22;9763;48.780;9.212;2023-03-01T07:34:59;4.50;57.60
19258;DHT22;9763;48.780;9.212;2023-03-01T07:38:24;4.50;57.50
19258;DHT22;9763;48.780;9.212;2023-03-01T07:41:48;4.50;57.50
19258;DHT22;9763;48.780;9.212;2023-03-01T07:45:15;4.90;57.70
19258;DHT22;9763;48.780;9.212;2023-03-01T07:48:39;4.50;57.40
19258;DHT22;9763;48.780;9.212;2023-03-01T07:52:03;4.50;57.30
19258;DHT22;9763;48.780;9.212;2023-03-01T07:55:28;4.60;57.50
19258;DHT22;9763;48.780;9.212;2023-03-01T07:58:52;4.60;57.60
19258;DHT22;9763;48.780;9.212;2023-03-01T08:02:16;4.60;57.90
19258;DHT22;9763;48.780;9.212;2023-03-01T08:05:40;4.70;57.80
19258;DHT22;9763;48.780;9.212;2023-03-01T08:09:04;2.10;55.30
19258;DHT22;9763;48.780;9.212;2023-03-01T08:12:29;4.90;57.40
19258;DHT22;9763;48.780;9.212;2023-03-01T08:15:53;5.00;57.40
19258;DHT22;9763;48.780;9.212;2023-03-01T08:19:17;5.00;57.40
19258;DHT22;9763;48.780;9.212;2023-03-01T08:22:41;5.10;57.30
19258;DHT22;9763;48.780;9.212;2023-03-01T08:26:06;5.10;57.90
19258;DHT22;9763;48.780;9.212;2023-03-01T08:29:32;5.20;57.90
19258;DHT22;9763;48.780;9.212;2023-03-01T08:32:56;5.20;58.00
19258;DHT22;9763;48.780;9.212;2023-03-01T08:36:21;5.30;59.00
19258;DHT22;9763;48.780;9.212;2023-03-01T08:39:46;5.70;62.50
19258;DHT22;9763;48.780;9.212;2023-03-01T08:43:10;6.40;66.50
19258;DHT22;9763;48.780;9.212;2023-03-01T08:46:36;7.30;69.50
19258;DHT22;9763;48.780;9.212;2023-03-01T08:50:02;8.40;71.60
19258;DHT22;9763;48.780;9.212;2023-03-01T08:53:26;9.50;72.60
19258;DHT22;9763;48.780;9.212;2023-03-01T08:56:50;10.40;69.30
19258;DHT22;9763;48.780;9.212;2023-03-01T09:00:14;11.00;65.50
19258;DHT22;9763;48.780;9.212;2023-03-01T09:03:40;11.30;62.50
19258;DHT22;9763;48.780;9.212;2023-03-01T09:07:04;11.40;61.80
19258;DHT22;9763;48.780;9.212;2023-03-01T09:10:30;11.50;63.40
19258;DHT22;9763;48.780;9.212;2023-03-01T09:13:54;11.90;65.80
19258;DHT22;9763;48.780;9.212;2023-03-01T09:17:17;12.40;68.10
19258;DHT22;9763;48.780;9.212;2023-03-01T09:20:45;13.00;69.30
19258;DHT22;9763;48.780;9.212;2023-03-01T09:24:13;13.70;69.70
19258;DHT22;9763;48.780;9.212;2023-03-01T09:27:44;14.40;69.40
19258;DHT22;9763;48.780;9.212;2023-03-01T09:31:08;15.20;69.70
19258;DHT22;9763;48.780;9.212;2023-03-01T09:34:34;15.60;69.10
19258;DHT22;9763;48.780;9.212;2023-03-01T09:38:20;16.10;68.30
19258;DHT22;9763;48.780;9.212;2023-03-01T09:41:49;16.60;67.20
19258;DHT22;9763;48.780;9.212;2023-03-01T09:45:27;16.90;66.20
19258;DHT22;9763;48.780;9.212;2023-03-01T09:48:59;17.30;65.10
19258;DHT22;9763;48.780;9.212;2023-03-01T09:52:33;17.60;64.80
19258;DHT22;9763;48.780;9.212;2023-03-01T09:56:05;17.80;62.30
19258;DHT22;9763;48.780;9.212;2023-03-01T09:59:47;17.90;62.50
19258;DHT22;9763;48.780;9.212;2023-03-01T10:03:25;18.10;61.90
19258;DHT22;9763;48.780;9.212;2023-03-01T10:07:05;18.20;61.40
19258;DHT22;9763;48.780;9.212;2023-03-01T10:10:43;18.40;60.50
19258;DHT22;9763;48.780;9.212;2023-03-01T10:14:15;18.50;61.40
19258;DHT22;9763;48.780;9.212;2023-03-01T10:17:50;18.70;60.60
19258;DHT22;9763;48.780;9.212;2023-03-01T10:21:20;18.80;61.70
19258;DHT22;9763;48.780;9.212;2023-03-01T10:24:44;18.90;59.40
19258;DHT22;9763;48.780;9.212;2023-03-01T10:28:16;19.00;59.70
19258;DHT22;9763;48.780;9.212;2023-03-01T10:31:44;19.20;60.40
19258;DHT22;9763;48.780;9.212;2023-03-01T10:35:18;19.30;60.90
19258;DHT22;9763;48.780;9.212;2023-03-01T10:38:50;19.50;60.00
19258;DHT22;9763;48.780;9.212;2023-03-01T10:42:22;19.60;59.50
19258;DHT22;9763;48.780;9.212;2023-03-01T10:45:50;19.80;60.50
19258;DHT22;9763;48.780;9.212;2023-03-01T10:49:17;20.10;59.30
19258;DHT22;9763;48.780;9.212;2023-03-01T10:52:57;20.00;58.50
19258;DHT22;9763;48.780;9.212;2023-03-01T10:56:22;20.10;57.40
19258;DHT22;9763;48.780;9.212;2023-03-01T11:00:01;20.10;59.40
19258;DHT22;9763;48.780;9.212;2023-03-01T11:03:41;20.10;56.50
19258;DHT22;9763;48.780;9.212;2023-03-01T11:07:06;20.00;56.60
19258;DHT22;9763;48.780;9.212;2023-03-01T11:10:32;20.00;55.40
19258;DHT22;9763;48.780;9.212;2023-03-01T11:13:58;19.80;54.50
19258;DHT22;9763;48.780;9.212;2023-03-01T11:17:31;19.80;55.60
19258;DHT22;9763;48.780;9.212;2023-03-01T11:21:15;19.90;55.80
19258;DHT22;9763;48.780;9.212;2023-03-01T11:24:41;19.80;56.00
19258;DHT22;9763;48.780;9.212;2023-03-01T11:28:14;19.90;55.70
19258;DHT22;9763;48.780;9.212;2023-03-01T11:31:40;19.90;55.80
19258;DHT22;9763;48.780;9.212;2023-03-01T11:35:21;20.00;55.80
19258;DHT22;9763;48.780;9.212;2023-03-01T11:38:48;20.00;55.70
19258;DHT22;9763;48.780;9.212;2023-03-01T11:42:18;20.10;56.40
19258;DHT22;9763;48.780;9.212;2023-03-01T11:45:53;20.20;55.30
19258;DHT22;9763;48.780;9.212;2023-03-01T11:53:37;20.30;54.70
19258;DHT22;9763;48.780;9.212;2023-03-01T11:57:19;20.30;54.40
19258;DHT22;9763;48.780;9.212;2023-03-01T12:05:24;20.30;53.20
19258;DHT22;9763;48.780;9.212;2023-03-01T12:09:24;20.10;51.60
19258;DHT22;9763;48.780;9.212;2023-03-01T12:17:06;19.40;51.40
19258;DHT22;9763;48.780;9.212;2023-03-01T12:20:44;19.00;49.30
19258;DHT22;9763;48.780;9.212;2023-03-01T12:24:57;18.60;50.80
19258;DHT22;9763;48.780;9.212;2023-03-01T12:32:47;17.90;50.50
19258;DHT22;9763;48.780;9.212;2023-03-01T12:40:46;17.20;49.30
19258;DHT22;9763;48.780;9.212;2023-03-01T12:44:33;16.70;47.20
19258;DHT22;9763;48.780;9.212;2023-03-01T12:48:24;16.50;48.30
19258;DHT22;9763;48.780;9.212;2023-03-01T12:52:11;15.90;47.20
19258;DHT22;9763;48.780;9.212;2023-03-01T12:55:41;15.60;47.80
19258;DHT22;9763;48.780;9.212;2023-03-01T12:59:13;15.30;47.90
19258;DHT22;9763;48.780;9.212;2023-03-01T13:02:48;15.00;46.70
19258;DHT22;9763;48.780;9.212;2023-03-01T13:06:22;14.80;47.00
19258;DHT22;9763;48.780;9.212;2023-03-01T13:10:18;14.60;47.40
19258;DHT22;9763;48.780;9.212;2023-03-01T13:13:47;14.30;46.50
19258;DHT22;9763;48.780;9.212;2023-03-01T13:17:40;14.20;47.10
19258;DHT22;9763;48.780;9.212;2023-03-01T13:21:09;14.00;46.30
19258;DHT22;9763;48.780;9.212;2023-03-01T13:24:37;13.90;46.70
19258;DHT22;9763;48.780;9.212;2023-03-01T13:32:20;13.60;45.60
19258;DHT22;9763;48.780;9.212;2023-03-01T13:36:03;13.40;46.10
19258;DHT22;9763;48.780;9.212;2023-03-01T13:39:39;13.30;46.60
19258;DHT22;9763;48.780;9.212;2023-03-01T13:43:28;13.20;46.90
19258;DHT22;9763;48.780;9.212;2023-03-01T13:46:57;13.10;46.70
19258;DHT22;9763;48.780;9.212;2023-03-01T13:50:27;13.10;47.20
19258;DHT22;9763;48.780;9.212;2023-03-01T13:53:56;13.10;47.50
19258;DHT22;9763;48.780;9.212;2023-03-01T13:57:28;13.10;47.50
19258;DHT22;9763;48.780;9.212;2023-03-01T14:00:59;13.00;47.30
19258;DHT22;9763;48.780;9.212;2023-03-01T14:04:25;13.00;48.00
19258;DHT22;9763;48.780;9.212;2023-03-01T14:07:51;13.00;47.10
19258;DHT22;9763;48.780;9.212;2023-03-01T14:15:41;12.80;46.40
19258;DHT22;9763;48.780;9.212;2023-03-01T14:19:15;12.80;47.00
19258;DHT22;9763;48.780;9.212;2023-03-01T14:22:56;12.60;47.00
19258;DHT22;9763;48.780;9.212;2023-03-01T14:26:22;12.70;47.00
19258;DHT22;9763;48.780;9.212;2023-03-01T14:29:55;12.70;47.50
19258;DHT22;9763;48.780;9.212;2023-03-01T14:33:24;12.40;46.90
19258;DHT22;9763;48.780;9.212;2023-03-01T14:36:49;12.40;47.40
19258;DHT22;9763;48.780;9.212;2023-03-01T14:40:22;12.30;47.40
19258;DHT22;9763;48.780;9.212;2023-03-01T14:43:51;12.30;47.90
19258;DHT22;9763;48.780;9.212;2023-03-01T14:47:25;12.20;47.40
19258;DHT22;9763;48.780;9.212;2023-03-01T14:50:52;12.20;47.40
19258;DHT22;9763;48.780;9.212;2023-03-01T14:54:21;12.10;47.20
19258;DHT22;9763;48.780;9.212;2023-03-01T14:57:49;12.10;47.00
19258;DHT22;9763;48.780;9.212;2023-03-01T15:01:16;12.10;47.30
19258;DHT22;9763;48.780;9.212;2023-03-01T15:04:41;12.00;47.30
19258;DHT22;9763;48.780;9.212;2023-03-01T15:08:16;12.00;47.40
19258;DHT22;9763;48.780;9.212;2023-03-01T15:11:42;11.90;47.30
19258;DHT22;9763;48.780;9.212;2023-03-01T15:15:32;11.90;46.90
19258;DHT22;9763;48.780;9.212;2023-03-01T15:19:00;11.80;46.80
19258;DHT22;9763;48.780;9.212;2023-03-01T15:22:27;11.80;47.00
19258;DHT22;9763;48.780;9.212;2023-03-01T15:25:53;11.70;47.00
19258;DHT22;9763;48.780;9.212;2023-03-01T15:29:25;11.60;47.00
19258;DHT22;9763;48.780;9.212;2023-03-01T15:33:16;11.60;47.10
19258;DHT22;9763;48.780;9.212;2023-03-01T15:36:44;11.50;47.70
19258;DHT22;9763;48.780;9.212;2023-03-01T15:40:20;11.40;47.10
19258;DHT22;9763;48.780;9.212;2023-03-01T15:43:54;11.40;47.30
19258;DHT22;9763;48.780;9.212;2023-03-01T15:47:29;11.30;47.00
19258;DHT22;9763;48.780;9.212;2023-03-01T15:50:56;11.20;47.10
19258;DHT22;9763;48.780;9.212;2023-03-01T15:54:23;11.20;47.30
19258;DHT22;9763;48.780;9.212;2023-03-01T15:57:49;11.10;47.20
19258;DHT22;9763;48.780;9.212;2023-03-01T16:01:24;11.10;47.30
19258;DHT22;9763;48.780;9.212;2023-03-01T16:04:47;11.10;47.30
19258;DHT22;9763;48.780;9.212;2023-03-01T16:08:11;11.00;47.30
19258;DHT22;9763;48.780;9.212;2023-03-01T16:11:35;10.90;47.20
19258;DHT22;9763;48.780;9.212;2023-03-01T16:15:01;10.80;47.20
19258;DHT22;9763;48.780;9.212;2023-03-01T16:18:26;10.80;47.10
19258;DHT22;9763;48.780;9.212;2023-03-01T16:21:49;11.10;47.20
19258;DHT22;9763;48.780;9.212;2023-03-01T16:25:15;10.70;47.10
19258;DHT22;9763;48.780;9.212;2023-03-01T16:28:40;10.60;47.20
19258;DHT22;9763;48.780;9.212;2023-03-01T16:32:04;10.60;47.20
19258;DHT22;9763;48.780;9.212;2023-03-01T16:35:30;10.50;46.90
19258;DHT22;9763;48.780;9.212;2023-03-01T16:38:53;10.40;46.30
19258;DHT22;9763;48.780;9.212;2023-03-01T16:42:17;10.40;46.30
19258;DHT22;9763;48.780;9.212;2023-03-01T16:49:06;10.40;46.60
19258;DHT22;9763;48.780;9.212;2023-03-01T16:52:33;10.30;46.50
19258;DHT22;9763;48.780;9.212;2023-03-01T16:55:57;10.40;47.10
19258;DHT22;9763;48.780;9.212;2023-03-01T16:59:22;10.10;46.40
19258;DHT22;9763;48.780;9.212;2023-03-01T17:02:45;10.20;47.10
19258;DHT22;9763;48.780;9.212;2023-03-01T17:06:11;10.10;47.00
19258;DHT22;9763;48.780;9.212;2023-03-01T17:09:38;10.00;46.40
19258;DHT22;9763;48.780;9.212;2023-03-01T17:13:01;10.00;46.90
19258;DHT22;9763;48.780;9.212;2023-03-01T17:19:50;9.90;47.40
19258;DHT22;9763;48.780;9.212;2023-03-01T17:23:13;9.80;47.80
19258;DHT22;9763;48.780;9.212;2023-03-01T17:26:39;9.80;47.90
19258;DHT22;9763;48.780;9.212;2023-03-01T17:30:05;9.70;47.90
19258;DHT22;9763;48.780;9.212;2023-03-01T17:33:31;9.60;47.90
19258;DHT22;9763;48.780;9.212;2023-03-01T17:36:55;9.60;47.90
19258;DHT22;9763;48.780;9.212;2023-03-01T17:40:18;9.50;47.90
19258;DHT22;9763;48.780;9.212;2023-03-01T17:43:43;9.30;47.40
19258;DHT22;9763;48.780;9.212;2023-03-01T17:47:08;9.30;48.00
19258;DHT22;9763;48.780;9.212;2023-03-01T17:50:36;9.10;47.50
19258;DHT22;9763;48.780;9.212;2023-03-01T17:54:01;9.00;47.50
19258;DHT22;9763;48.780;9.212;2023-03-01T17:57:25;9.10;48.20
19258;DHT22;9763;48.780;9.212;2023-03-01T18:00:50;9.00;47.70
19258;DHT22;9763;48.780;9.212;2023-03-01T18:04:13;8.90;48.30
19258;DHT22;9763;48.780;9.212;2023-03-01T18:07:39;8.80;48.30
19258;DHT22;9763;48.780;9.212;2023-03-01T18:11:03;8.80;49.00
19258;DHT22;9763;48.780;9.212;2023-03-01T18:14:27;8.70;48.40
19258;DHT22;9763;48.780;9.212;2023-03-01T18:17:56;8.70;48.40
19258;DHT22;9763;48.780;9.212;2023-03-01T18:21:20;9.80;49.30
19258;DHT22;9763;48.780;9.212;2023-03-01T18:24:45;8.70;48.60
19258;DHT22;9763;48.780;9.212;2023-03-01T18:28:08;8.40;48.40
19258;DHT22;9763;48.780;9.212;2023-03-01T18:31:32;8.40;48.40
19258;DHT22;9763;48.780;9.212;2023-03-01T18:34:57;8.40;48.60
19258;DHT22;9763;48.780;9.212;2023-03-01T18:38:21;8.30;48.60
19258;DHT22;9763;48.780;9.212;2023-03-01T18:41:44;8.30;48.70
19258;DHT22;9763;48.780;9.212;2023-03-01T18:45:09;8.30;48.60
19258;DHT22;9763;48.780;9.212;2023-03-01T18:48:35;8.20;48.70
19258;DHT22;9763;48.780;9.212;2023-03-01T18:52:00;8.20;48.70
19258;DHT22;9763;48.780;9.212;2023-03-01T18:55:24;8.10;48.70
19258;DHT22;9763;48.780;9.212;2023-03-01T18:58:47;8.10;48.70
19258;DHT22;9763;48.780;9.212;2023-03-01T19:02:12;8.00;48.70
19258;DHT22;9763;48.780;9.212;2023-03-01T19:05:40;8.00;48.70
19258;DHT22;9763;48.780;9.212;2023-03-01T19:09:06;7.90;48.80
19258;DHT22;9763;48.780;9.212;2023-03-01T19:12:34;7.90;48.90
19258;DHT22;9763;48.780;9.212;2023-03-01T19:16:02;7.80;48.80
19258;DHT22;9763;48.780;9.212;2023-03-01T19:19:27;7.70;48.90
19258;DHT22;9763;48.780;9.212;2023-03-01T19:22:51;7.70;48.90
19258;DHT22;9763;48.780;9.212;2023-03-01T19:26:18;7.60;48.80
19258;DHT22;9763;48.780;9.212;2023-03-01T19:29:43;7.60;48.90
19258;DHT22;9763;48.780;9.212;2023-03-01T19:33:07;7.50;48.80
19258;DHT22;9763;48.780;9.212;2023-03-01T19:36:31;7.50;48.90
19258;DHT22;9763;48.780;9.212;2023-03-01T19:39:56;7.40;48.80
19258;DHT22;9763;48.780;9.212;2023-03-01T19:43:21;7.30;48.80
19258;DHT22;9763;48.780;9.212;2023-03-01T19:46:45;7.20;49.00
19258;DHT22;9763;48.780;9.212;2023-03-01T19:50:10;7.10;49.10
19258;DHT22;9763;48.780;9.212;2023-03-01T19:53:36;7.10;49.30
19258;DHT22;9763;48.780;9.212;2023-03-01T19:57:00;7.10;49.30
19258;DHT22;9763;48.780;9.212;2023-03-01T20:00:28;7.00;49.30
19258;DHT22;9763;48.780;9.212;2023-03-01T20:03:52;7.00;49.40
19258;DHT22;9763;48.780;9.212;2023-03-01T20:07:17;6.90;49.50
19258;DHT22;9763;48.780;9.212;2023-03-01T20:10:40;6.90;49.60
19258;DHT22;9763;48.780;9.212;2023-03-01T20:14:04;6.90;49.70
19258;DHT22;9763;48.780;9.212;2023-03-01T20:17:33;6.90;50.00
19258;DHT22;9763;48.780;9.212;2023-03-01T20:20:58;6.90;50.10
19258;DHT22;9763;48.780;9.212;2023-03-01T20:24:23;7.00;51.00
19258;DHT22;9763;48.780;9.212;2023-03-01T20:27:47;7.00;50.30
19258;DHT22;9763;48.780;9.212;2023-03-01T20:31:14;7.10;50.60
19258;DHT22;9763;48.780;9.212;2023-03-01T20:34:40;7.10;50.70
19258;DHT22;9763;48.780;9.212;2023-03-01T20:38:04;7.20;50.70
19258;DHT22;9763;48.780;9.212;2023-03-01T20:41:28;7.30;50.70
19258;DHT22;9763;48.780;9.212;2023-03-01T20:44:52;7.30;50.50
19258;DHT22;9763;48.780;9.212;2023-03-01T20:48:16;7.30;50.40
19258;DHT22;9763;48.780;9.212;2023-03-01T20:51:41;7.30;50.40
19258;DHT22;9763;48.780;9.212;2023-03-01T20:55:06;7.30;50.20
19258;DHT22;9763;48.780;9.212;2023-03-01T20:58:30;7.20;50.20
19258;DHT22;9763;48.780;9.212;2023-03-01T21:01:56;7.20;50.80
19258;DHT22;9763;48.780;9.212;2023-03-01T21:05:20;7.20;50.30
19258;DHT22;9763;48.780;9.212;2023-03-01T21:08:45;7.10;50.30
19258;DHT22;9763;48.780;9.212;2023-03-01T21:12:09;7.10;50.40
19258;DHT22;9763;48.780;9.212;2023-03-01T21:15:32;7.10;50.60
19258;DHT22;9763;48.780;9.212;2023-03-01T21:18:58;7.10;50.70
19258;DHT22;9763;48.780;9.212;2023-03-01T21:22:22;7.10;50.70
19258;DHT22;9763;48.780;9.212;2023-03-01T21:25:58;7.10;50.60
19258;DHT22;9763;48.780;9.212;2023-03-01T21:29:22;7.10;50.50
19258;DHT22;9763;48.780;9.212;2023-03-01T21:32:47;7.10;50.40
19258;DHT22;9763;48.780;9.212;2023-03-01T21:36:11;7.10;50.30
19258;DHT22;9763;48.780;9.212;2023-03-01T21:39:35;7.00;50.20
19258;DHT22;9763;48.780;9.212;2023-03-01T21:43:00;7.00;50.30
19258;DHT22;9763;48.780;9.212;2023-03-01T21:46:26;7.10;50.40
19258;DHT22;9763;48.780;9.212;2023-03-01T21:49:52;6.80;50.30
19258;DHT22;9763;48.780;9.212;2023-03-01T21:53:15;6.80;50.20
19258;DHT22;9763;48.780;9.212;2023-03-01T21:56:40;6.70;50.30
19258;DHT22;9763;48.780;9.212;2023-03-01T22:00:08;6.60;50.40
19258;DHT22;9763;48.780;9.212;2023-03-01T22:07:05;6.50;50.00
19258;DHT22;9763;48.780;9.212;2023-03-01T22:10:29;6.40;50.50
19258;DHT22;9763;48.780;9.212;2023-03-01T22:13:54;6.40;50.50
19258;DHT22;9763;48.780;9.212;2023-03-01T22:17:19;6.10;50.60
19258;DHT22;9763;48.780;9.212;2023-03-01T22:20:43;6.30;50.80
19258;DHT22;9763;48.780;9.212;2023-03-01T22:24:08;6.30;50.90
19258;DHT22;9763;48.780;9.212;2023-03-01T22:27:32;6.30;51.10
19258;DHT22;9763;48.780;9.212;2023-03-01T22:31:02;6.30;51.10
19258;DHT22;9763;48.780;9.212;2023-03-01T22:34:27;6.30;51.20
19258;DHT22;9763;48.780;9.212;2023-03-01T22:37:51;6.40;51.20
19258;DHT22;9763;48.780;9.212;2023-03-01T22:41:15;6.40;51.20
19258;DHT22;9763;48.780;9.212;2023-03-01T22:44:38;6.40;51.20
19258;DHT22;9763;48.780;9.212;2023-03-01T22:48:03;6.40;51.20
19258;DHT22;9763;48.780;9.212;2023-03-01T22:51:30;6.40;51.30
19258;DHT22;9763;48.780;9.212;2023-03-01T22:54:56;6.40;51.30
19258;DHT22;9763;48.780;9.212;2023-03-01T22:58:20;6.40;51.20
19258;DHT22;9763;48.780;9.212;2023-03-01T23:01:45;6.40;51.20
19258;DHT22;9763;48.780;9.212;2023-03-01T23:05:10;6.40;51.20
19258;DHT22;9763;48.780;9.212;2023-03-01T23:08:35;6.40;51.20
19258;DHT22;9763;48.780;9.212;2023-03-01T23:12:01;6.40;51.20
19258;DHT22;9763;48.780;9.212;2023-03-01T23:15:27;6.30;51.20
19258;DHT22;9763;48.780;9.212;2023-03-01T23:18:52;6.50;51.20
19258;DHT22;9763;48.780;9.212;2023-03-01T23:22:16;6.20;51.20